Time;durP1;ratioP1;P1;durP2;ratioP2;P2;SDS_P1;SDS_P2;PMS_P1;PMS_P2;Temp;Humidity;BMP_temperature;BMP_pressure;BME280_temperature;BME280_humidity;BME280_pressure;Samples;Min_cycle;Max_cycle;Signal;HPM_P1;HPM_P2
2021/12/09 00:01:49;;;;;;;21.13;10.05;;;1.80;99.90;;;;;;5063979;28;20055;-82
2021/12/09 00:04:24;;;;;;;20.98;8.98;;;1.80;99.90;;;;;;5023966;28;99759;-82
2021/12/09 00:06:53;;;;;;;22.90;9.55;;;1.90;99.90;;;;;;5059695;28;20504;-82
2021/12/09 00:09:20;;;;;;;19.60;9.80;;;1.90;99.90;;;;;;5056768;28;27273;-83
2021/12/09 00:11:47;;;;;;;23.60;9.82;;;1.90;99.90;;;;;;5075223;28;20060;-82
2021/12/09 00:14:18;;;;;;;19.70;9.88;;;1.90;99.90;;;;;;5060624;28;166927;-82
2021/12/09 00:16:46;;;;;;;23.25;9.73;;;1.90;99.90;;;;;;5078381;28;20063;-81
2021/12/09 00:19:15;;;;;;;19.30;10.13;;;1.90;99.90;;;;;;5047447;28;151351;-82
2021/12/09 00:21:42;;;;;;;25.05;10.35;;;1.90;99.90;;;;;;5040185;28;20052;-81
2021/12/09 00:24:08;;;;;;;24.05;10.77;;;1.80;99.90;;;;;;5052452;28;268881;-84
2021/12/09 00:26:34;;;;;;;21.52;9.90;;;1.80;99.90;;;;;;5076069;28;20053;-82
2021/12/09 00:29:02;;;;;;;20.88;11.02;;;1.80;99.90;;;;;;5055106;28;158218;-82
2021/12/09 00:31:28;;;;;;;25.33;11.00;;;1.80;99.90;;;;;;5063872;28;20529;-83
2021/12/09 00:33:56;;;;;;;20.45;11.00;;;1.70;99.90;;;;;;5051187;28;258098;-82
2021/12/09 00:36:33;;;;;;;24.70;10.80;;;1.80;99.90;;;;;;5064859;28;20052;-83
2021/12/09 00:38:59;;;;;;;19.67;10.40;;;1.70;99.90;;;;;;5053511;28;141120;-81
2021/12/09 00:41:26;;;;;;;21.63;10.85;;;1.70;99.90;;;;;;5065267;28;20052;-81
2021/12/09 00:43:52;;;;;;;29.40;11.10;;;1.70;99.90;;;;;;5049542;28;166071;-81
2021/12/09 00:46:21;;;;;;;24.48;10.95;;;1.60;99.90;;;;;;5061408;28;20055;-82
2021/12/09 00:48:48;;;;;;;25.17;11.77;;;1.60;99.90;;;;;;5050143;28;247032;-82
2021/12/09 00:51:14;;;;;;;24.65;10.98;;;1.60;99.90;;;;;;5048944;28;20067;-81
2021/12/09 00:53:41;;;;;;;24.40;11.18;;;1.60;99.90;;;;;;5054052;28;101866;-82
2021/12/09 00:56:10;;;;;;;19.30;10.70;;;1.50;99.90;;;;;;5045143;28;20064;-82
2021/12/09 00:58:38;;;;;;;24.55;12.60;;;1.50;99.90;;;;;;5048125;28;258523;-81
2021/12/09 01:01:06;;;;;;;23.17;12.60;;;1.50;99.90;;;;;;5064024;28;20048;-82
2021/12/09 01:03:33;;;;;;;24.73;12.30;;;1.50;99.90;;;;;;5027829;28;260509;-82
2021/12/09 01:05:59;;;;;;;26.85;12.85;;;1.50;99.90;;;;;;5043697;28;20132;-82
2021/12/09 01:08:25;;;;;;;29.58;12.30;;;1.50;99.90;;;;;;5046714;28;260314;-81
2021/12/09 01:10:52;;;;;;;26.77;13.25;;;1.40;99.90;;;;;;5085526;28;20041;-82
2021/12/09 01:13:21;;;;;;;27.05;12.57;;;1.40;99.90;;;;;;5063838;28;253159;-82
2021/12/09 01:15:48;;;;;;;26.95;13.43;;;1.40;99.90;;;;;;5050963;28;20059;-81
2021/12/09 01:18:14;;;;;;;25.58;13.48;;;1.40;99.90;;;;;;5069749;28;20044;-82
2021/12/09 01:20:41;;;;;;;29.70;14.20;;;1.40;99.90;;;;;;5040065;28;120741;-81
2021/12/09 01:23:07;;;;;;;32.53;14.68;;;1.40;99.90;;;;;;5072673;28;20048;-81
2021/12/09 01:25:37;;;;;;;29.00;13.93;;;1.40;99.90;;;;;;5061644;28;38315;-84
2021/12/09 01:28:17;;;;;;;27.38;14.10;;;1.40;99.90;;;;;;5055106;28;20052;-81
2021/12/09 01:30:45;;;;;;;27.77;13.88;;;1.50;99.90;;;;;;5025436;28;20044;-81
2021/12/09 01:33:11;;;;;;;31.73;12.95;;;1.40;99.90;;;;;;5067250;28;20123;-82
2021/12/09 01:35:40;;;;;;;28.33;14.35;;;1.40;99.90;;;;;;5048026;28;264047;-82
2021/12/09 01:38:12;;;;;;;27.30;13.68;;;1.40;99.90;;;;;;5069802;28;20048;-82
2021/12/09 01:40:39;;;;;;;26.23;13.90;;;1.40;99.90;;;;;;5055333;28;139270;-81
2021/12/09 01:43:06;;;;;;;29.48;14.15;;;1.40;99.90;;;;;;5072441;28;20496;-80
2021/12/09 01:45:33;;;;;;;23.92;14.23;;;1.40;99.90;;;;;;5044797;28;20040;-81
2021/12/09 01:47:59;;;;;;;28.98;14.23;;;1.40;99.90;;;;;;5067975;28;20049;-81
2021/12/09 01:50:26;;;;;;;26.45;13.68;;;1.40;99.90;;;;;;5050618;28;237739;-80
2021/12/09 01:52:53;;;;;;;26.45;14.75;;;1.40;99.90;;;;;;5051678;28;20428;-83
2021/12/09 01:55:23;;;;;;;31.48;15.35;;;1.40;99.90;;;;;;5039639;28;251525;-81
2021/12/09 01:57:51;;;;;;;28.15;14.57;;;1.40;99.90;;;;;;5070755;28;20060;-83
2021/12/09 02:00:21;;;;;;;28.02;14.93;;;1.40;99.90;;;;;;5045660;28;200243;-82
2021/12/09 02:02:49;;;;;;;27.23;14.65;;;1.50;99.90;;;;;;5055344;28;20056;-80
2021/12/09 02:05:15;;;;;;;26.95;13.88;;;1.40;99.90;;;;;;5028169;28;157899;-81
2021/12/09 02:07:42;;;;;;;26.15;14.88;;;1.40;99.90;;;;;;5073142;28;20064;-82
2021/12/09 02:10:15;;;;;;;28.00;15.00;;;1.40;99.90;;;;;;5041168;28;227630;-82
2021/12/09 02:12:42;;;;;;;28.48;14.82;;;1.40;99.90;;;;;;5065948;28;20040;-81
2021/12/09 02:15:09;;;;;;;30.02;15.13;;;1.40;99.90;;;;;;5055367;28;245872;-80
2021/12/09 02:17:35;;;;;;;32.00;15.00;;;1.40;99.90;;;;;;5072592;28;20053;-81
2021/12/09 02:20:07;;;;;;;30.00;14.73;;;1.40;99.90;;;;;;5062425;28;264539;-81
2021/12/09 02:22:34;;;;;;;29.35;15.25;;;1.40;99.90;;;;;;5069317;28;20044;-82
2021/12/09 02:25:00;;;;;;;30.70;14.98;;;1.40;99.90;;;;;;4941106;28;2999869;-81
2021/12/09 02:27:26;;;;;;;25.67;14.25;;;1.40;99.90;;;;;;5067237;28;20079;-81
2021/12/09 02:29:56;;;;;;;31.17;15.02;;;1.40;99.90;;;;;;5042169;28;99039;-82
2021/12/09 02:32:23;;;;;;;30.60;14.77;;;1.40;99.90;;;;;;5074118;28;20044;-83
2021/12/09 02:34:49;;;;;;;32.05;16.52;;;1.40;99.90;;;;;;5060592;28;47425;-83
2021/12/09 02:37:15;;;;;;;32.08;15.93;;;1.40;99.90;;;;;;5070538;28;20067;-82
2021/12/09 02:39:43;;;;;;;26.15;14.20;;;1.40;99.90;;;;;;5057992;28;234794;-81
2021/12/09 02:42:10;;;;;;;28.15;14.55;;;1.40;99.90;;;;;;5067818;28;20057;-80
2021/12/09 02:44:36;;;;;;;30.25;14.90;;;1.30;99.90;;;;;;4962487;28;2995237;-80
2021/12/09 02:47:03;;;;;;;29.60;13.93;;;1.30;99.90;;;;;;5069251;28;20049;-80
2021/12/09 02:49:31;;;;;;;29.17;15.43;;;1.20;99.90;;;;;;5059563;28;266689;-81
2021/12/09 02:51:59;;;;;;;30.55;15.50;;;1.20;99.90;;;;;;5073641;28;20049;-80
2021/12/09 02:54:27;;;;;;;29.52;15.05;;;1.20;99.90;;;;;;5056863;28;40295;-81
2021/12/09 02:57:00;;;;;;;32.42;15.93;;;1.20;99.90;;;;;;5069837;28;20866;-81
2021/12/09 02:59:27;;;;;;;32.85;16.65;;;1.20;99.90;;;;;;5048343;28;130574;-81
2021/12/09 03:01:57;;;;;;;34.40;16.60;;;1.20;99.90;;;;;;5074759;28;20067;-81
2021/12/09 03:04:26;;;;;;;36.08;15.68;;;1.20;99.90;;;;;;5042341;28;172336;-81
2021/12/09 03:06:54;;;;;;;29.25;16.10;;;1.20;99.90;;;;;;5044665;28;20873;-80
2021/12/09 03:09:21;;;;;;;29.85;16.73;;;1.20;99.90;;;;;;5052350;28;180041;-80
2021/12/09 03:11:54;;;;;;;34.67;17.20;;;1.20;99.90;;;;;;5065685;28;20056;-80
2021/12/09 03:14:22;;;;;;;33.70;17.02;;;1.20;99.90;;;;;;5057465;28;113365;-79
2021/12/09 03:16:49;;;;;;;32.25;16.88;;;1.10;99.90;;;;;;5064962;28;20071;-80
2021/12/09 03:19:16;;;;;;;27.55;16.20;;;1.10;99.90;;;;;;5054785;28;275347;-83
2021/12/09 03:21:49;;;;;;;38.25;17.45;;;1.10;99.90;;;;;;5066631;28;20063;-80
2021/12/09 03:24:18;;;;;;;32.95;17.83;;;1.10;99.90;;;;;;5058351;28;91765;-81
2021/12/09 03:26:48;;;;;;;30.13;17.20;;;1.10;99.90;;;;;;5073050;28;20362;-81
2021/12/09 03:29:16;;;;;;;32.83;16.92;;;1.10;99.90;;;;;;5049968;28;260548;-81
2021/12/09 03:31:44;;;;;;;31.88;16.25;;;1.10;99.90;;;;;;5045911;28;20056;-82
2021/12/09 03:34:12;;;;;;;35.45;17.48;;;1.10;99.90;;;;;;5056793;28;101425;-82
2021/12/09 03:36:39;;;;;;;29.90;17.20;;;1.00;99.90;;;;;;5051356;28;20067;-82
2021/12/09 03:39:14;;;;;;;35.15;18.00;;;1.00;99.90;;;;;;5051275;28;282802;-82
2021/12/09 03:42:01;;;;;;;31.70;17.17;;;1.10;99.90;;;;;;5079999;28;20056;-82
2021/12/09 03:44:28;;;;;;;30.10;17.67;;;1.00;99.90;;;;;;5057924;28;132171;-82
2021/12/09 03:46:57;;;;;;;34.55;18.95;;;1.00;99.90;;;;;;5074844;28;20057;-82
2021/12/09 03:49:24;;;;;;;32.00;18.10;;;1.00;99.90;;;;;;5056298;28;239036;-82
2021/12/09 03:51:52;;;;;;;30.52;17.90;;;1.00;99.90;;;;;;5066931;28;20048;-81
2021/12/09 03:54:19;;;;;;;33.33;17.83;;;1.00;99.90;;;;;;5034966;28;211404;-80
2021/12/09 03:56:46;;;;;;;34.58;18.05;;;1.00;99.90;;;;;;5066648;28;20428;-80
2021/12/09 03:59:13;;;;;;;33.58;18.25;;;1.00;99.90;;;;;;5059556;28;33270;-80
2021/12/09 04:01:44;;;;;;;33.92;18.65;;;1.00;99.90;;;;;;5064433;28;20156;-83
2021/12/09 04:04:14;;;;;;;35.95;19.52;;;1.00;99.90;;;;;;5040998;28;196860;-81
2021/12/09 04:06:41;;;;;;;44.55;20.27;;;0.90;99.90;;;;;;5066820;28;20163;-82
2021/12/09 04:09:11;;;;;;;32.92;19.00;;;1.00;99.90;;;;;;5051696;28;208367;-84
2021/12/09 04:11:40;;;;;;;34.17;18.10;;;1.00;99.90;;;;;;5064581;28;20065;-82
2021/12/09 04:14:09;;;;;;;32.00;19.10;;;1.00;99.90;;;;;;5043402;28;199056;-82
2021/12/09 04:16:36;;;;;;;31.15;17.88;;;1.00;99.90;;;;;;5066232;28;20052;-82
2021/12/09 04:19:07;;;;;;;32.78;18.10;;;1.00;99.90;;;;;;5041103;28;20056;-80
2021/12/09 04:21:34;;;;;;;35.88;18.65;;;0.90;99.90;;;;;;5059216;28;20111;-82
2021/12/09 04:24:07;;;;;;;32.95;18.63;;;0.90;99.90;;;;;;5033296;28;238354;-80
2021/12/09 04:26:40;;;;;;;33.08;19.25;;;0.90;99.90;;;;;;5064933;28;20049;-81
2021/12/09 04:29:08;;;;;;;32.15;18.30;;;0.90;99.90;;;;;;5051657;28;257667;-80
2021/12/09 04:31:35;;;;;;;32.53;17.52;;;0.80;99.90;;;;;;5064697;28;20055;-80
2021/12/09 04:34:05;;;;;;;41.88;20.73;;;0.80;99.90;;;;;;5051490;28;259362;-80
2021/12/09 04:36:31;;;;;;;38.13;19.50;;;0.80;99.90;;;;;;5073821;28;20056;-80
2021/12/09 04:38:57;;;;;;;37.63;20.15;;;0.80;99.90;;;;;;5042100;28;279609;-81
2021/12/09 04:41:24;;;;;;;32.97;18.88;;;0.80;99.90;;;;;;5050695;28;20052;-82
2021/12/09 04:43:50;;;;;;;33.78;18.75;;;0.80;99.90;;;;;;5053222;28;212712;-80
2021/12/09 04:46:17;;;;;;;36.13;18.30;;;0.80;99.90;;;;;;5061942;28;20051;-81
2021/12/09 04:48:45;;;;;;;33.13;19.08;;;0.80;99.90;;;;;;5054119;28;314545;-81
2021/12/09 04:51:12;;;;;;;39.08;19.98;;;0.80;99.90;;;;;;5072230;28;20041;-81
2021/12/09 04:53:40;;;;;;;36.53;18.85;;;0.70;99.90;;;;;;5059436;28;233666;-80
2021/12/09 04:56:09;;;;;;;39.70;19.60;;;0.70;99.90;;;;;;5067957;28;20045;-80
2021/12/09 04:58:36;;;;;;;41.65;20.15;;;0.70;99.90;;;;;;5055533;28;304146;-81
2021/12/09 05:01:09;;;;;;;35.58;20.17;;;0.70;99.90;;;;;;5069003;28;20075;-80
2021/12/09 05:03:35;;;;;;;40.00;20.20;;;0.80;99.90;;;;;;5029683;28;186728;-81
2021/12/09 05:06:07;;;;;;;38.55;19.20;;;0.70;99.90;;;;;;5079304;28;20675;-81
2021/12/09 05:08:33;;;;;;;37.58;20.63;;;0.70;99.90;;;;;;5066935;28;208608;-81
2021/12/09 05:13:32;;;;;;;37.45;20.05;;;0.60;99.90;;;;;;5072841;28;193617;-80
2021/12/09 05:16:00;;;;;;;33.15;19.73;;;0.60;99.90;;;;;;5085385;28;20078;-81
2021/12/09 05:18:29;;;;;;;42.92;21.55;;;0.60;99.90;;;;;;5065245;28;20063;-81
2021/12/09 05:21:15;;;;;;;42.78;21.27;;;0.60;99.90;;;;;;5035066;28;20055;-81
2021/12/09 05:23:52;;;;;;;43.70;21.83;;;0.60;99.90;;;;;;5052170;28;290248;-81
2021/12/09 05:26:21;;;;;;;43.47;21.67;;;0.70;99.90;;;;;;5045671;28;20038;-81
2021/12/09 05:28:54;;;;;;;43.95;22.35;;;0.70;99.90;;;;;;4903500;28;2959445;-81
2021/12/09 05:34:12;;;;;;;45.47;22.38;;;0.70;99.90;;;;;;5015693;28;49108;-80
2021/12/09 05:36:42;;;;;;;44.10;21.75;;;0.70;99.90;;;;;;5030385;28;20112;-80
2021/12/09 05:39:10;;;;;;;40.72;21.55;;;0.70;99.90;;;;;;5000298;28;184171;-80
2021/12/09 05:41:38;;;;;;;42.03;22.85;;;0.70;99.90;;;;;;5026238;28;20080;-80
2021/12/09 05:44:06;;;;;;;42.88;22.95;;;0.70;99.90;;;;;;5006961;28;20045;-80
2021/12/09 05:46:35;;;;;;;44.90;21.08;;;0.70;99.90;;;;;;5029118;28;20068;-80
2021/12/09 05:49:02;;;;;;;42.50;21.75;;;0.70;99.90;;;;;;5034089;28;45035;-80
2021/12/09 05:51:28;;;;;;;42.92;21.20;;;0.70;99.90;;;;;;5026055;28;20069;-81
2021/12/09 05:53:59;;;;;;;39.90;21.63;;;0.70;99.90;;;;;;5031567;28;100713;-81
2021/12/09 05:56:26;;;;;;;46.33;21.70;;;0.70;99.90;;;;;;5024969;28;20058;-82
2021/12/09 05:58:58;;;;;;;50.70;22.98;;;0.70;99.90;;;;;;5064058;28;273165;-81
2021/12/09 06:01:27;;;;;;;39.47;22.58;;;0.70;99.90;;;;;;5062412;28;20167;-81
2021/12/09 06:03:54;;;;;;;44.58;23.08;;;0.70;99.90;;;;;;4946311;28;2993761;-82
2021/12/09 06:06:20;;;;;;;43.45;22.88;;;0.80;99.90;;;;;;5078019;28;20040;-84
2021/12/09 06:08:47;;;;;;;45.95;22.08;;;0.70;99.90;;;;;;5057895;28;263387;-83
2021/12/09 06:11:20;;;;;;;47.05;22.75;;;0.80;99.90;;;;;;5056570;28;20047;-84
2021/12/09 06:13:50;;;;;;;41.65;22.13;;;0.80;99.90;;;;;;5051941;28;253468;-82
2021/12/09 06:16:17;;;;;;;37.92;22.52;;;0.80;99.90;;;;;;5062631;28;20061;-83
2021/12/09 06:19:04;;;;;;;39.78;21.70;;;0.80;99.90;;;;;;5044293;28;36731;-83
2021/12/09 06:21:30;;;;;;;40.55;21.20;;;0.90;99.90;;;;;;5054079;28;20078;-81
2021/12/09 06:23:59;;;;;;;44.45;22.60;;;0.90;99.90;;;;;;5051952;28;250209;-82
2021/12/09 06:26:27;;;;;;;47.88;22.35;;;0.80;99.90;;;;;;5074854;28;20057;-81
2021/12/09 06:28:53;;;;;;;38.47;20.70;;;0.80;99.90;;;;;;5062830;28;242661;-82
2021/12/09 06:31:22;;;;;;;40.50;21.35;;;0.90;99.90;;;;;;5087793;28;20549;-84
2021/12/09 06:33:54;;;;;;;37.70;20.48;;;0.80;99.90;;;;;;5035930;28;226440;-86
2021/12/09 06:36:21;;;;;;;41.22;20.35;;;0.80;99.90;;;;;;5074151;28;20060;-84
2021/12/09 06:38:47;;;;;;;39.22;20.73;;;0.70;99.90;;;;;;5038684;28;77933;-85
2021/12/09 06:41:13;;;;;;;46.42;21.55;;;0.70;99.90;;;;;;5053611;28;20059;-83
2021/12/09 06:43:47;;;;;;;41.54;21.60;;;0.70;99.90;;;;;;4949379;28;3011860;-83
2021/12/09 06:46:13;;;;;;;40.60;22.15;;;0.60;99.90;;;;;;5053068;28;20049;-83
2021/12/09 06:48:41;;;;;;;41.45;21.33;;;0.60;99.90;;;;;;5032274;28;96210;-81
2021/12/09 06:51:11;;;;;;;39.25;21.10;;;0.60;99.90;;;;;;5043431;28;20420;-82
2021/12/09 06:53:37;;;;;;;48.63;21.00;;;0.60;99.90;;;;;;5068152;28;208187;-83
2021/12/09 06:56:07;;;;;;;43.70;20.05;;;0.50;99.90;;;;;;5065144;28;20071;-84
2021/12/09 06:58:36;;;;;;;43.30;20.58;;;0.60;99.90;;;;;;5068791;28;37121;-84
2021/12/09 07:01:03;;;;;;;43.47;21.00;;;0.50;99.90;;;;;;5059503;28;20051;-82
2021/12/09 07:03:29;;;;;;;46.85;21.15;;;0.50;99.90;;;;;;5007178;28;274950;-84
2021/12/09 07:06:05;;;;;;;41.03;19.65;;;0.50;99.90;;;;;;5063078;28;20056;-84
2021/12/09 07:08:31;;;;;;;40.53;21.20;;;0.50;99.90;;;;;;5062152;27;174296;-83
2021/12/09 07:10:57;;;;;;;39.92;20.52;;;0.50;99.90;;;;;;5054902;28;20059;-82
2021/12/09 07:13:24;;;;;;;43.33;20.50;;;0.50;99.90;;;;;;5047976;28;253479;-83
2021/12/09 07:15:50;;;;;;;38.92;18.88;;;0.40;99.90;;;;;;5062063;28;20048;-83
2021/12/09 07:18:20;;;;;;;38.85;20.10;;;0.40;99.90;;;;;;5067428;28;20052;-81
2021/12/09 07:20:47;;;;;;;38.77;20.20;;;0.30;99.90;;;;;;5036385;28;20063;-83
2021/12/09 07:23:13;;;;;;;44.30;20.40;;;0.30;99.90;;;;;;5059345;28;20056;-83
2021/12/09 07:25:39;;;;;;;42.22;20.73;;;0.30;99.90;;;;;;5047694;28;83739;-81
2021/12/09 07:28:05;;;;;;;39.67;21.75;;;0.30;99.90;;;;;;5077606;28;20044;-81
2021/12/09 07:30:35;;;;;;;40.13;20.50;;;0.30;99.90;;;;;;4950143;28;3007343;-83
2021/12/09 07:33:01;;;;;;;39.40;19.95;;;0.20;99.90;;;;;;5059020;28;20041;-83
2021/12/09 07:35:30;;;;;;;47.15;20.23;;;0.20;99.90;;;;;;5060731;28;198778;-81
2021/12/09 07:38:03;;;;;;;46.53;20.55;;;0.30;99.90;;;;;;5060738;28;20064;-83
2021/12/09 07:40:30;;;;;;;43.92;21.17;;;0.20;99.90;;;;;;5048385;28;130449;-83
2021/12/09 07:42:56;;;;;;;46.45;21.05;;;0.20;99.90;;;;;;5061191;28;20044;-83
2021/12/09 07:45:23;;;;;;;44.17;21.88;;;0.20;99.90;;;;;;5051325;28;24822;-82
2021/12/09 07:47:50;;;;;;;52.20;22.33;;;0.20;99.90;;;;;;5060195;28;20052;-83
2021/12/09 07:50:20;;;;;;;48.30;22.95;;;0.30;99.90;;;;;;5037611;28;75347;-84
2021/12/09 07:52:50;;;;;;;56.35;22.92;;;0.30;99.90;;;;;;5062187;28;20040;-83
2021/12/09 07:55:18;;;;;;;55.72;24.00;;;0.30;99.90;;;;;;5052054;28;51592;-84
2021/12/09 07:57:44;;;;;;;48.63;22.88;;;0.40;99.90;;;;;;5078554;28;20056;-83
2021/12/09 08:00:15;;;;;;;48.90;22.80;;;0.40;99.90;;;;;;5048740;28;141038;-83
2021/12/09 08:02:43;;;;;;;48.17;22.45;;;0.40;99.90;;;;;;5060762;28;20060;-83
2021/12/09 08:05:12;;;;;;;47.28;21.98;;;0.40;99.90;;;;;;5040446;28;208566;-82
2021/12/09 08:07:41;;;;;;;43.88;20.45;;;0.40;99.90;;;;;;5046799;28;20486;-82
2021/12/09 08:10:13;;;;;;;43.13;20.05;;;0.40;99.90;;;;;;5045958;28;225471;-81
2021/12/09 08:12:40;;;;;;;51.08;22.70;;;0.40;99.90;;;;;;5048620;28;20048;-81
2021/12/09 08:15:10;;;;;;;44.92;21.38;;;0.40;99.90;;;;;;5057338;28;114851;-80
2021/12/09 08:20:13;;;;;;;44.05;20.67;;;0.40;99.90;;;;;;5068452;28;271722;-82
2021/12/09 08:22:39;;;;;;;44.67;21.35;;;0.40;99.90;;;;;;5064928;28;20072;-80
2021/12/09 08:25:08;;;;;;;48.35;22.77;;;0.40;99.90;;;;;;5044600;28;102230;-81
2021/12/09 08:27:36;;;;;;;48.38;22.00;;;0.40;99.90;;;;;;5063613;28;20152;-83
2021/12/09 08:30:06;;;;;;;42.05;21.63;;;0.50;99.90;;;;;;5057105;28;22327;-83
2021/12/09 08:32:33;;;;;;;55.72;23.20;;;0.50;99.90;;;;;;5054811;28;20449;-82
2021/12/09 08:34:59;;;;;;;51.88;22.45;;;0.60;99.90;;;;;;5050426;28;193158;-83
2021/12/09 08:37:27;;;;;;;52.30;22.60;;;0.60;99.90;;;;;;5063063;28;20055;-83
2021/12/09 08:39:53;;;;;;;52.00;23.17;;;0.70;99.90;;;;;;5039948;28;23038;-83
2021/12/09 08:42:19;;;;;;;50.75;22.95;;;0.70;99.90;;;;;;5065241;28;20059;-83
2021/12/09 08:44:45;;;;;;;49.90;20.67;;;0.80;99.90;;;;;;5066822;28;24369;-82
2021/12/09 08:47:11;;;;;;;51.35;22.27;;;0.70;99.90;;;;;;5074036;28;20052;-82
2021/12/09 08:49:38;;;;;;;39.63;22.15;;;0.70;99.90;;;;;;5053412;28;183208;-80
2021/12/09 08:52:10;;;;;;;47.20;22.05;;;0.80;99.90;;;;;;5065668;28;20062;-82
2021/12/09 08:54:36;;;;;;;50.45;22.63;;;0.80;99.90;;;;;;5069561;27;259113;-81
2021/12/09 08:57:06;;;;;;;43.70;22.80;;;0.80;99.90;;;;;;5057858;28;20048;-81
2021/12/09 08:59:32;;;;;;;43.28;23.33;;;0.90;99.90;;;;;;5046135;28;264103;-82
2021/12/09 09:01:58;;;;;;;48.45;22.45;;;1.00;99.90;;;;;;5050302;28;20048;-81
2021/12/09 09:04:24;;;;;;;41.63;21.75;;;1.00;99.90;;;;;;5033087;28;172497;-81
2021/12/09 09:06:52;;;;;;;51.38;22.63;;;1.00;99.90;;;;;;5064948;28;20052;-81
2021/12/09 09:09:18;;;;;;;45.03;21.38;;;1.10;99.90;;;;;;5043616;28;23278;-81
2021/12/09 09:11:45;;;;;;;40.15;21.23;;;1.10;99.90;;;;;;5069284;28;20063;-82
2021/12/09 09:14:11;;;;;;;42.45;19.92;;;1.10;99.90;;;;;;5067831;28;71690;-82
2021/12/09 09:16:38;;;;;;;42.58;20.13;;;1.20;99.90;;;;;;5062010;28;20425;-82
2021/12/09 09:19:05;;;;;;;45.75;20.67;;;1.20;99.90;;;;;;5056755;28;37825;-82
2021/12/09 09:21:34;;;;;;;41.20;21.13;;;1.30;99.90;;;;;;5068584;28;20393;-81
2021/12/09 09:24:03;;;;;;;42.67;20.55;;;1.30;99.90;;;;;;5054038;28;121018;-81
2021/12/09 09:26:30;;;;;;;32.15;18.20;;;1.30;99.90;;;;;;5071666;28;22080;-81
2021/12/09 09:28:57;;;;;;;35.78;17.42;;;1.30;99.90;;;;;;5034834;28;187218;-81
2021/12/09 09:31:28;;;;;;;35.17;18.80;;;1.30;99.90;;;;;;5046392;28;20037;-81
2021/12/09 09:33:55;;;;;;;37.60;17.92;;;1.40;99.90;;;;;;5040961;28;146799;-81
2021/12/09 09:36:22;;;;;;;34.03;17.55;;;1.40;99.90;;;;;;5061594;28;20497;-82
2021/12/09 09:38:48;;;;;;;42.78;18.98;;;1.50;99.90;;;;;;5051868;28;43132;-81
2021/12/09 09:41:17;;;;;;;34.28;18.23;;;1.50;99.90;;;;;;5053983;28;20056;-81
2021/12/09 09:46:27;;;;;;;33.95;17.58;;;1.50;99.90;;;;;;5069019;28;20064;-81
2021/12/09 09:48:56;;;;;;;34.45;17.33;;;1.60;99.90;;;;;;5051266;28;41814;-81
2021/12/09 09:51:24;;;;;;;30.27;15.18;;;1.60;99.90;;;;;;5073421;28;20033;-85
2021/12/09 09:53:53;;;;;;;31.70;16.25;;;1.70;99.90;;;;;;5029470;28;70149;-82
2021/12/09 09:56:23;;;;;;;33.92;17.35;;;1.70;99.90;;;;;;5052560;28;20407;-83
2021/12/09 09:58:55;;;;;;;29.73;16.60;;;1.80;99.90;;;;;;5060656;28;27661;-82
2021/12/09 10:01:23;;;;;;;39.13;16.80;;;1.80;99.90;;;;;;5060387;28;20044;-83
2021/12/09 10:03:58;;;;;;;33.08;15.48;;;1.90;99.90;;;;;;5024134;28;129481;-83
2021/12/09 10:06:25;;;;;;;31.38;14.77;;;1.90;99.90;;;;;;5061594;28;20041;-82
2021/12/09 10:08:51;;;;;;;28.55;14.55;;;2.00;99.90;;;;;;5061948;28;242841;-81
2021/12/09 10:11:20;;;;;;;29.25;14.52;;;2.00;99.90;;;;;;5077351;28;20055;-81
2021/12/09 10:13:46;;;;;;;27.10;14.70;;;2.10;99.90;;;;;;5056589;28;20051;-81
2021/12/09 10:16:26;;;;;;;29.33;14.35;;;2.10;99.90;;;;;;5062143;28;20049;-82
2021/12/09 10:18:54;;;;;;;28.55;14.75;;;2.20;99.90;;;;;;5050364;28;218361;-81
2021/12/09 10:21:32;;;;;;;29.35;14.43;;;2.20;99.90;;;;;;5054824;28;20766;-81
2021/12/09 10:24:04;;;;;;;29.90;14.60;;;2.20;99.90;;;;;;5060831;28;78373;-82
2021/12/09 10:26:39;;;;;;;32.45;14.15;;;2.30;99.90;;;;;;5050717;28;20060;-81
2021/12/09 10:29:05;;;;;;;27.65;13.52;;;2.40;99.90;;;;;;5037110;28;227212;-81
2021/12/09 10:31:53;;;;;;;25.95;14.02;;;2.40;99.90;;;;;;5078015;28;20049;-81
2021/12/09 10:34:41;;;;;;;32.22;13.75;;;2.50;99.90;;;;;;5055844;28;143035;-83
2021/12/09 10:37:15;;;;;;;24.00;13.45;;;2.60;99.90;;;;;;5081280;28;20056;-81
2021/12/09 10:39:49;;;;;;;29.25;13.75;;;2.60;99.90;;;;;;5055593;28;20089;-81
2021/12/09 10:42:44;;;;;;;26.67;13.30;;;2.70;99.90;;;;;;5069270;28;20064;-80
2021/12/09 10:45:14;;;;;;;26.20;12.57;;;2.80;99.90;;;;;;5049814;28;71373;-81
2021/12/09 10:47:51;;;;;;;29.40;13.82;;;2.80;99.90;;;;;;5076917;28;20135;-81
2021/12/09 10:56:01;;;;;;;27.27;13.13;;;2.80;99.90;;;;;;5040028;28;20056;-81
2021/12/09 10:58:35;;;;;;;26.93;11.83;;;2.80;99.90;;;;;;5043991;28;253012;-81
2021/12/09 11:01:17;;;;;;;26.30;11.93;;;2.80;99.90;;;;;;5048066;28;20053;-80
2021/12/09 11:03:46;;;;;;;30.27;12.20;;;2.80;99.90;;;;;;5013906;28;137204;-81
2021/12/09 11:06:20;;;;;;;26.63;12.80;;;2.90;99.90;;;;;;5078508;28;20437;-81
2021/12/09 11:08:53;;;;;;;32.55;13.27;;;2.90;99.90;;;;;;5033091;28;149170;-79
2021/12/09 11:11:34;;;;;;;26.02;12.98;;;2.90;99.90;;;;;;5048675;28;20041;-84
2021/12/09 11:14:03;;;;;;;31.05;12.60;;;2.90;99.90;;;;;;5043821;28;154281;-83
2021/12/09 11:16:39;;;;;;;31.05;13.63;;;2.90;99.90;;;;;;5061552;28;20060;-80
2021/12/09 11:19:12;;;;;;;32.53;12.93;;;2.90;99.90;;;;;;5030161;28;197237;-81
2021/12/09 11:21:44;;;;;;;31.65;13.95;;;2.90;99.90;;;;;;5067930;28;20041;-81
2021/12/09 11:24:14;;;;;;;30.75;15.20;;;3.00;99.90;;;;;;5030826;28;219156;-82
2021/12/09 11:27:03;;;;;;;31.20;14.68;;;3.00;99.90;;;;;;5065663;28;20048;-83
2021/12/09 11:29:53;;;;;;;;;;;3.00;99.90;;;;;;5039189;28;177301;-81
2021/12/09 11:35:04;;;;;;;39.60;14.90;;;3.00;99.90;;;;;;5062132;28;275354;-80
2021/12/09 11:40:12;;;;;;;32.03;15.13;;;3.10;99.90;;;;;;5049936;28;212690;-81
2021/12/09 11:45:11;;;;;;;28.80;13.90;;;3.10;99.90;;;;;;5069019;28;262339;-81
2021/12/09 11:47:41;;;;;;;28.95;14.20;;;3.20;99.90;;;;;;5060538;28;20053;-81
2021/12/09 11:50:15;;;;;;;33.13;13.20;;;3.20;99.90;;;;;;5055800;28;257922;-82
2021/12/09 11:52:46;;;;;;;25.88;13.45;;;3.20;99.90;;;;;;5062988;28;20513;-81
2021/12/09 11:55:15;;;;;;;;;;;3.20;99.90;;;;;;5051474;28;92574;-81
2021/12/09 11:57:50;;;;;;;28.75;12.50;;;3.20;99.90;;;;;;5060575;28;19927;-80
2021/12/09 12:13:04;;;;;;;26.98;14.15;;;3.30;99.90;;;;;;5067272;28;20059;-80
2021/12/09 12:18:50;;;;;;;26.98;13.70;;;3.30;99.90;;;;;;5075366;28;20140;-83
2021/12/09 12:24:34;;;;;;;27.85;13.38;;;3.30;99.90;;;;;;5048759;28;253260;-81
2021/12/09 12:27:12;;;;;;;29.67;14.52;;;3.40;99.90;;;;;;5057862;28;20078;-83
2021/12/09 12:30:28;;;;;;;29.55;14.40;;;3.50;99.90;;;;;;5051003;28;254426;-84
2021/12/09 12:38:09;;;;;;;;;;;3.50;99.90;;;;;;5055728;28;20058;-84
2021/12/09 12:40:42;;;;;;;26.95;15.35;;;3.40;99.90;;;;;;5055341;28;264274;-81
2021/12/09 12:43:17;;;;;;;30.75;15.57;;;3.40;99.90;;;;;;5058604;28;20436;-82
2021/12/09 12:48:41;;;;;;;27.55;15.27;;;3.40;99.90;;;;;;5044912;28;268656;-83
2021/12/09 12:54:32;;;;;;;28.20;14.68;;;3.50;99.90;;;;;;5054073;28;212734;-84
2021/12/09 12:57:02;;;;;;;31.90;15.32;;;3.40;99.90;;;;;;5046006;28;20052;-82
2021/12/09 12:59:40;;;;;;;28.55;14.82;;;3.50;99.90;;;;;;5062819;28;108605;-83
2021/12/09 13:03:25;;;;;;;30.40;14.93;;;3.40;99.90;;;;;;5065028;28;20525;-81
2021/12/09 13:14:02;;;;;;;33.80;14.43;;;3.50;99.90;;;;;;5043074;28;248010;-82
2021/12/09 13:19:14;;;;;;;33.83;15.95;;;3.50;99.90;;;;;;5051381;28;103745;-82
2021/12/09 13:22:01;;;;;;;33.33;14.90;;;3.50;99.90;;;;;;5067416;28;20072;-82
2021/12/09 13:25:05;;;;;;;31.65;15.77;;;3.50;99.90;;;;;;5059504;28;88640;-84
2021/12/09 13:27:58;;;;;;;30.25;16.67;;;3.60;99.90;;;;;;5086469;28;20059;-83
2021/12/09 13:31:01;;;;;;;33.15;15.30;;;3.60;99.90;;;;;;5052130;28;20040;-83
2021/12/09 13:33:49;;;;;;;31.67;14.98;;;3.60;99.90;;;;;;5050877;28;263526;-82
2021/12/09 13:39:18;;;;;;;30.35;15.43;;;3.60;99.90;;;;;;5051536;28;46004;-82
2021/12/09 13:55:34;;;;;;;38.58;16.73;;;3.70;99.90;;;;;;5056963;28;144850;-84
2021/12/09 13:58:05;;;;;;;31.90;16.48;;;3.70;99.90;;;;;;5082239;28;20052;-84
2021/12/09 14:00:35;;;;;;;32.60;15.83;;;3.70;99.90;;;;;;5079976;28;261190;-82
2021/12/09 14:03:13;;;;;;;34.63;17.88;;;3.80;99.90;;;;;;5077622;28;20060;-84
2021/12/09 14:05:49;;;;;;;31.88;17.33;;;3.80;99.90;;;;;;5057471;28;200057;-81
2021/12/09 14:08:25;;;;;;;33.50;16.40;;;3.80;99.90;;;;;;5049780;28;20049;-82
2021/12/09 14:11:01;;;;;;;31.92;17.27;;;3.80;99.90;;;;;;5051205;28;20036;-82